Check out our new PWSWeather beta!
PWSweather.com
Personal Weather Stations
Station Observations
KFLSTJOH36
Aberdeen Highland Point, Saint Johns, FL 32259

Aberdeen Highland PointSaint Johns, FL 32259

Lat: 30.082981, Lon: -81.59522

Elevation: 60

Station Type: Acurite 5-in-1 Weather Sensor

High Low Average
Temperature 89.6°F32.0°C 64.4°F18.0°C 77.5°F25.3°C
Dew Point 73.6°F23.1°C 62.6°F17.0°C 68.8°F20.4°C
Winds 6.0 mph 9.7 kmh Calm Calm 1.0 mph SW1.6 kmh SW
Wind Gusts -- -- --
Humidity 97% 58% 76%
Pressure 30.43 in1030.5 mb 30.31 in1026.4 mb -
Precipitation 0.00 in0.0 mm - -
Hour Temp Dew Point Humidity Winds Wind Gusts Pressure Precip Precip Rate Daily Precip Total
12:05 AM 67.3°F19.6°C 64.9°F18.3°C 92% Calm Calm -- 30.35 in1027.8 mb 0.00 in0.0 mm 0.00 in0.0 mm 0.00 in0.0 mm
12:10 AM 67.3°F19.6°C 64.9°F18.3°C 92% Calm Calm -- 30.34 in1027.4 mb 0.00 in0.0 mm 0.00 in0.0 mm 0.00 in0.0 mm
12:15 AM 66.9°F19.4°C 64.5°F18.1°C 92% Calm Calm -- 30.35 in1027.8 mb 0.00 in0.0 mm 0.00 in0.0 mm 0.00 in0.0 mm
12:20 AM 66.7°F19.3°C 64.3°F17.9°C 92% Calm Calm -- 30.35 in1027.8 mb 0.00 in0.0 mm 0.00 in0.0 mm 0.00 in0.0 mm
12:25 AM 66.6°F19.2°C 64.1°F17.8°C 92% Calm Calm -- 30.35 in1027.8 mb 0.00 in0.0 mm 0.00 in0.0 mm 0.00 in0.0 mm
12:30 AM 66.6°F19.2°C 64.1°F17.8°C 92% Calm Calm -- 30.34 in1027.4 mb 0.00 in0.0 mm 0.00 in0.0 mm 0.00 in0.0 mm
12:35 AM 66.4°F19.1°C 64.0°F17.8°C 92% Calm Calm -- 30.35 in1027.8 mb 0.00 in0.0 mm 0.00 in0.0 mm 0.00 in0.0 mm
12:40 AM 66.4°F19.1°C 64.0°F17.8°C 92% Calm Calm -- 30.34 in1027.4 mb 0.00 in0.0 mm 0.00 in0.0 mm 0.00 in0.0 mm
12:55 AM 66.6°F19.2°C 64.1°F17.8°C 92% Calm Calm -- 30.35 in1027.8 mb 0.00 in0.0 mm 0.00 in0.0 mm 0.00 in0.0 mm
01:00 AM 66.6°F19.2°C 64.5°F18.1°C 93% Calm Calm -- 30.34 in1027.4 mb 0.00 in0.0 mm 0.00 in0.0 mm 0.00 in0.0 mm
01:05 AM 66.7°F19.3°C 64.6°F18.1°C 93% Calm Calm -- 30.34 in1027.4 mb 0.00 in0.0 mm 0.00 in0.0 mm 0.00 in0.0 mm
01:10 AM 66.9°F19.4°C 64.8°F18.2°C 93% Calm Calm -- 30.34 in1027.4 mb 0.00 in0.0 mm 0.00 in0.0 mm 0.00 in0.0 mm
01:25 AM 66.7°F19.3°C 64.6°F18.1°C 93% Calm Calm -- 30.34 in1027.4 mb 0.00 in0.0 mm 0.00 in0.0 mm 0.00 in0.0 mm
01:40 AM 66.4°F19.1°C 64.3°F17.9°C 93% Calm Calm -- 30.34 in1027.4 mb 0.00 in0.0 mm 0.00 in0.0 mm 0.00 in0.0 mm
01:45 AM 66.2°F19.0°C 64.1°F17.8°C 93% Calm Calm -- 30.34 in1027.4 mb 0.00 in0.0 mm 0.00 in0.0 mm 0.00 in0.0 mm
01:50 AM 66.2°F19.0°C 64.1°F17.8°C 93% Calm Calm -- 30.34 in1027.4 mb 0.00 in0.0 mm 0.00 in0.0 mm 0.00 in0.0 mm
02:00 AM 66.0°F18.9°C 63.9°F17.7°C 93% Calm Calm -- 30.34 in1027.4 mb 0.00 in0.0 mm 0.00 in0.0 mm 0.00 in0.0 mm
02:20 AM 66.0°F18.9°C 63.9°F17.7°C 93% Calm Calm -- 30.33 in1027.1 mb 0.00 in0.0 mm 0.00 in0.0 mm 0.00 in0.0 mm
02:25 AM 65.8°F18.8°C 63.7°F17.6°C 93% Calm Calm -- 30.34 in1027.4 mb 0.00 in0.0 mm 0.00 in0.0 mm 0.00 in0.0 mm
02:30 AM 66.0°F18.9°C 63.9°F17.7°C 93% Calm Calm -- 30.34 in1027.4 mb 0.00 in0.0 mm 0.00 in0.0 mm 0.00 in0.0 mm
02:35 AM 66.0°F18.9°C 63.9°F17.7°C 93% Calm Calm -- 30.33 in1027.1 mb 0.00 in0.0 mm 0.00 in0.0 mm 0.00 in0.0 mm
02:40 AM 66.0°F18.9°C 63.9°F17.7°C 93% Calm Calm -- 30.33 in1027.1 mb 0.00 in0.0 mm 0.00 in0.0 mm 0.00 in0.0 mm
02:45 AM 65.8°F18.8°C 63.7°F17.6°C 93% Calm Calm -- 30.34 in1027.4 mb 0.00 in0.0 mm 0.00 in0.0 mm 0.00 in0.0 mm
02:50 AM 65.8°F18.8°C 63.7°F17.6°C 93% Calm Calm -- 30.33 in1027.1 mb 0.00 in0.0 mm 0.00 in0.0 mm 0.00 in0.0 mm
02:55 AM 65.8°F18.8°C 63.7°F17.6°C 93% Calm Calm -- 30.34 in1027.4 mb 0.00 in0.0 mm 0.00 in0.0 mm 0.00 in0.0 mm
03:05 AM 65.8°F18.8°C 63.7°F17.6°C 93% Calm Calm -- 30.33 in1027.1 mb 0.00 in0.0 mm 0.00 in0.0 mm 0.00 in0.0 mm
03:10 AM 65.7°F18.7°C 63.6°F17.6°C 93% Calm Calm -- 30.33 in1027.1 mb 0.00 in0.0 mm 0.00 in0.0 mm 0.00 in0.0 mm
03:20 AM 65.3°F18.5°C 63.5°F17.5°C 94% Calm Calm -- 30.33 in1027.1 mb 0.00 in0.0 mm 0.00 in0.0 mm 0.00 in0.0 mm
03:25 AM 65.3°F18.5°C 63.5°F17.5°C 94% Calm Calm -- 30.33 in1027.1 mb 0.00 in0.0 mm 0.00 in0.0 mm 0.00 in0.0 mm
03:30 AM 65.3°F18.5°C 63.5°F17.5°C 94% Calm Calm -- 30.33 in1027.1 mb 0.00 in0.0 mm 0.00 in0.0 mm 0.00 in0.0 mm
03:35 AM 65.1°F18.4°C 63.3°F17.4°C 94% Calm Calm -- 30.33 in1027.1 mb 0.00 in0.0 mm 0.00 in0.0 mm 0.00 in0.0 mm
03:40 AM 64.9°F18.3°C 63.2°F17.3°C 94% Calm Calm -- 30.33 in1027.1 mb 0.00 in0.0 mm 0.00 in0.0 mm 0.00 in0.0 mm
03:45 AM 64.9°F18.3°C 63.2°F17.3°C 94% Calm Calm -- 30.33 in1027.1 mb 0.00 in0.0 mm 0.00 in0.0 mm 0.00 in0.0 mm
03:50 AM 64.9°F18.3°C 63.2°F17.3°C 94% Calm Calm -- 30.33 in1027.1 mb 0.00 in0.0 mm 0.00 in0.0 mm 0.00 in0.0 mm
03:55 AM 64.8°F18.2°C 63.0°F17.2°C 94% Calm Calm -- 30.33 in1027.1 mb 0.00 in0.0 mm 0.00 in0.0 mm 0.00 in0.0 mm
04:00 AM 64.6°F18.1°C 62.8°F17.1°C 94% Calm Calm -- 30.32 in1026.8 mb 0.00 in0.0 mm 0.00 in0.0 mm 0.00 in0.0 mm
04:05 AM 64.4°F18.0°C 62.6°F17.0°C 94% Calm Calm -- 30.32 in1026.8 mb 0.00 in0.0 mm 0.00 in0.0 mm 0.00 in0.0 mm
04:10 AM 64.6°F18.1°C 62.8°F17.1°C 94% Calm Calm -- 30.32 in1026.8 mb 0.00 in0.0 mm 0.00 in0.0 mm 0.00 in0.0 mm
04:15 AM 64.8°F18.2°C 63.0°F17.2°C 94% Calm Calm -- 30.32 in1026.8 mb 0.00 in0.0 mm 0.00 in0.0 mm 0.00 in0.0 mm
04:20 AM 64.9°F18.3°C 63.2°F17.3°C 94% Calm Calm -- 30.32 in1026.8 mb 0.00 in0.0 mm 0.00 in0.0 mm 0.00 in0.0 mm
04:25 AM 64.9°F18.3°C 62.9°F17.2°C 93% Calm Calm -- 30.32 in1026.8 mb 0.00 in0.0 mm 0.00 in0.0 mm 0.00 in0.0 mm
04:30 AM 65.1°F18.4°C 63.0°F17.2°C 93% Calm Calm -- 30.33 in1027.1 mb 0.00 in0.0 mm 0.00 in0.0 mm 0.00 in0.0 mm
04:40 AM 64.9°F18.3°C 62.9°F17.2°C 93% Calm Calm -- 30.33 in1027.1 mb 0.00 in0.0 mm 0.00 in0.0 mm 0.00 in0.0 mm
05:20 AM 65.1°F18.4°C 63.0°F17.2°C 93% Calm Calm -- 30.33 in1027.1 mb 0.00 in0.0 mm 0.00 in0.0 mm 0.00 in0.0 mm
05:40 AM 65.1°F18.4°C 63.0°F17.2°C 93% Calm Calm -- 30.34 in1027.4 mb 0.00 in0.0 mm 0.00 in0.0 mm 0.00 in0.0 mm
05:50 AM 65.3°F18.5°C 63.2°F17.3°C 93% Calm Calm -- 30.34 in1027.4 mb 0.00 in0.0 mm 0.00 in0.0 mm 0.00 in0.0 mm
06:00 AM 65.3°F18.5°C 63.2°F17.3°C 93% Calm Calm -- 30.34 in1027.4 mb 0.00 in0.0 mm 0.00 in0.0 mm 0.00 in0.0 mm
06:05 AM 65.3°F18.5°C 63.5°F17.5°C 94% Calm Calm -- 30.35 in1027.8 mb 0.00 in0.0 mm 0.00 in0.0 mm 0.00 in0.0 mm
06:10 AM 65.3°F18.5°C 63.5°F17.5°C 94% Calm Calm -- 30.34 in1027.4 mb 0.00 in0.0 mm 0.00 in0.0 mm 0.00 in0.0 mm
06:15 AM 65.3°F18.5°C 63.5°F17.5°C 94% Calm Calm -- 30.34 in1027.4 mb 0.00 in0.0 mm 0.00 in0.0 mm 0.00 in0.0 mm
06:20 AM 65.3°F18.5°C 63.5°F17.5°C 94% Calm Calm -- 30.35 in1027.8 mb 0.00 in0.0 mm 0.00 in0.0 mm 0.00 in0.0 mm
06:30 AM 65.5°F18.6°C 63.7°F17.6°C 94% Calm Calm -- 30.35 in1027.8 mb 0.00 in0.0 mm 0.00 in0.0 mm 0.00 in0.0 mm
06:35 AM 65.3°F18.5°C 63.5°F17.5°C 94% Calm Calm -- 30.35 in1027.8 mb 0.00 in0.0 mm 0.00 in0.0 mm 0.00 in0.0 mm
06:40 AM 65.5°F18.6°C 63.7°F17.6°C 94% Calm Calm -- 30.35 in1027.8 mb 0.00 in0.0 mm 0.00 in0.0 mm 0.00 in0.0 mm
06:45 AM 65.3°F18.5°C 63.5°F17.5°C 94% Calm Calm -- 30.35 in1027.8 mb 0.00 in0.0 mm 0.00 in0.0 mm 0.00 in0.0 mm
06:50 AM 65.1°F18.4°C 63.3°F17.4°C 94% Calm Calm -- 30.36 in1028.1 mb 0.00 in0.0 mm 0.00 in0.0 mm 0.00 in0.0 mm
06:55 AM 65.1°F18.4°C 63.3°F17.4°C 94% Calm Calm -- 30.35 in1027.8 mb 0.00 in0.0 mm 0.00 in0.0 mm 0.00 in0.0 mm
07:00 AM 65.1°F18.4°C 63.3°F17.4°C 94% Calm Calm -- 30.36 in1028.1 mb 0.00 in0.0 mm 0.00 in0.0 mm 0.00 in0.0 mm
07:05 AM 64.9°F18.3°C 63.2°F17.3°C 94% Calm Calm -- 30.36 in1028.1 mb 0.00 in0.0 mm 0.00 in0.0 mm 0.00 in0.0 mm
07:15 AM 65.1°F18.4°C 63.3°F17.4°C 94% Calm Calm -- 30.36 in1028.1 mb 0.00 in0.0 mm 0.00 in0.0 mm 0.00 in0.0 mm
07:25 AM 65.3°F18.5°C 63.5°F17.5°C 94% Calm Calm -- 30.36 in1028.1 mb 0.00 in0.0 mm 0.00 in0.0 mm 0.00 in0.0 mm
07:30 AM 65.3°F18.5°C 63.2°F17.3°C 93% Calm Calm -- 30.36 in1028.1 mb 0.00 in0.0 mm 0.00 in0.0 mm 0.00 in0.0 mm
07:55 AM 65.5°F18.6°C 63.4°F17.4°C 93% Calm Calm -- 30.36 in1028.1 mb 0.00 in0.0 mm 0.00 in0.0 mm 0.00 in0.0 mm
08:05 AM 66.0°F18.9°C 63.9°F17.7°C 93% Calm Calm -- 30.37 in1028.4 mb 0.00 in0.0 mm 0.00 in0.0 mm 0.00 in0.0 mm
08:10 AM 66.6°F19.2°C 64.5°F18.1°C 93% Calm Calm -- 30.37 in1028.4 mb 0.00 in0.0 mm 0.00 in0.0 mm 0.00 in0.0 mm
08:15 AM 67.5°F19.7°C 65.4°F18.6°C 93% Calm Calm -- 30.37 in1028.4 mb 0.00 in0.0 mm 0.00 in0.0 mm 0.00 in0.0 mm
08:20 AM 66.4°F19.1°C 65.2°F18.4°C 96% Calm Calm -- 30.37 in1028.4 mb 0.00 in0.0 mm 0.00 in0.0 mm 0.00 in0.0 mm
08:25 AM 66.2°F19.0°C 65.0°F18.3°C 96% Calm Calm -- 30.37 in1028.4 mb 0.00 in0.0 mm 0.00 in0.0 mm 0.00 in0.0 mm
08:30 AM 66.6°F19.2°C 65.4°F18.6°C 96% Calm Calm -- 30.38 in1028.8 mb 0.00 in0.0 mm 0.00 in0.0 mm 0.00 in0.0 mm
08:35 AM 66.0°F18.9°C 64.8°F18.2°C 96% Calm Calm -- 30.37 in1028.4 mb 0.00 in0.0 mm 0.00 in0.0 mm 0.00 in0.0 mm
08:40 AM 66.4°F19.1°C 65.5°F18.6°C 97% Calm Calm -- 30.38 in1028.8 mb 0.00 in0.0 mm 0.00 in0.0 mm 0.00 in0.0 mm
08:45 AM 66.9°F19.4°C 66.0°F18.9°C 97% Calm Calm -- 30.38 in1028.8 mb 0.00 in0.0 mm 0.00 in0.0 mm 0.00 in0.0 mm
08:50 AM 67.6°F19.8°C 66.5°F19.2°C 96% Calm Calm -- 30.38 in1028.8 mb 0.00 in0.0 mm 0.00 in0.0 mm 0.00 in0.0 mm
08:55 AM 71.2°F21.8°C 68.5°F20.3°C 91% Calm Calm -- 30.38 in1028.8 mb 0.00 in0.0 mm 0.00 in0.0 mm 0.00 in0.0 mm
09:00 AM 72.3°F22.4°C 68.9°F20.5°C 89% 1.0 mph W1.6 kmh W -- 30.38 in1028.8 mb 0.00 in0.0 mm 0.00 in0.0 mm 0.00 in0.0 mm
09:05 AM 77.4°F25.2°C 70.7°F21.5°C 80% 2.0 mph W3.2 kmh W -- 30.38 in1028.8 mb 0.00 in0.0 mm 0.00 in0.0 mm 0.00 in0.0 mm
09:10 AM 77.2°F25.1°C 70.5°F21.4°C 80% 2.0 mph WSW3.2 kmh WSW -- 30.39 in1029.1 mb 0.00 in0.0 mm 0.00 in0.0 mm 0.00 in0.0 mm
09:15 AM 76.5°F24.7°C 70.2°F21.2°C 81% 2.0 mph W3.2 kmh W -- 30.39 in1029.1 mb 0.00 in0.0 mm 0.00 in0.0 mm 0.00 in0.0 mm
09:20 AM 77.0°F25.0°C 70.7°F21.5°C 81% 1.0 mph W1.6 kmh W -- 30.39 in1029.1 mb 0.00 in0.0 mm 0.00 in0.0 mm 0.00 in0.0 mm
09:25 AM 76.8°F24.9°C 70.5°F21.4°C 81% 2.0 mph WNW3.2 kmh WNW -- 30.39 in1029.1 mb 0.00 in0.0 mm 0.00 in0.0 mm 0.00 in0.0 mm
09:30 AM 77.5°F25.3°C 70.9°F21.6°C 80% 2.0 mph W3.2 kmh W -- 30.39 in1029.1 mb 0.00 in0.0 mm 0.00 in0.0 mm 0.00 in0.0 mm
09:35 AM 78.3°F25.7°C 71.2°F21.8°C 79% 3.0 mph WNW4.8 kmh WNW -- 30.40 in1029.5 mb 0.00 in0.0 mm 0.00 in0.0 mm 0.00 in0.0 mm
09:40 AM 78.1°F25.6°C 71.0°F21.7°C 79% 2.0 mph WNW3.2 kmh WNW -- 30.39 in1029.1 mb 0.00 in0.0 mm 0.00 in0.0 mm 0.00 in0.0 mm
09:45 AM 78.4°F25.8°C 71.0°F21.7°C 78% 3.0 mph W4.8 kmh W -- 30.40 in1029.5 mb 0.00 in0.0 mm 0.00 in0.0 mm 0.00 in0.0 mm
09:50 AM 79.2°F26.2°C 71.3°F21.8°C 77% 3.0 mph W4.8 kmh W -- 30.40 in1029.5 mb 0.00 in0.0 mm 0.00 in0.0 mm 0.00 in0.0 mm
09:55 AM 80.4°F26.9°C 71.8°F22.1°C 75% 5.0 mph W8.0 kmh W -- 30.41 in1029.8 mb 0.00 in0.0 mm 0.00 in0.0 mm 0.00 in0.0 mm
10:00 AM 78.6°F25.9°C 70.8°F21.6°C 77% 5.0 mph W8.0 kmh W -- 30.41 in1029.8 mb 0.00 in0.0 mm 0.00 in0.0 mm 0.00 in0.0 mm
10:05 AM 79.9°F26.6°C 71.2°F21.8°C 75% 2.0 mph NW3.2 kmh NW -- 30.41 in1029.8 mb 0.00 in0.0 mm 0.00 in0.0 mm 0.00 in0.0 mm
10:10 AM 79.7°F26.5°C 71.1°F21.7°C 75% 2.0 mph WNW3.2 kmh WNW -- 30.41 in1029.8 mb 0.00 in0.0 mm 0.00 in0.0 mm 0.00 in0.0 mm
10:15 AM 79.9°F26.6°C 70.8°F21.6°C 74% 2.0 mph WNW3.2 kmh WNW -- 30.41 in1029.8 mb 0.00 in0.0 mm 0.00 in0.0 mm 0.00 in0.0 mm
10:20 AM 78.6°F25.9°C 70.0°F21.1°C 75% 4.0 mph W6.4 kmh W -- 30.41 in1029.8 mb 0.00 in0.0 mm 0.00 in0.0 mm 0.00 in0.0 mm
10:25 AM 80.1°F26.7°C 70.6°F21.4°C 73% 3.0 mph WNW4.8 kmh WNW -- 30.41 in1029.8 mb 0.00 in0.0 mm 0.00 in0.0 mm 0.00 in0.0 mm
10:30 AM 81.1°F27.3°C 71.3°F21.8°C 72% 1.0 mph NNW1.6 kmh NNW -- 30.41 in1029.8 mb 0.00 in0.0 mm 0.00 in0.0 mm 0.00 in0.0 mm
10:35 AM 82.4°F28.0°C 71.2°F21.8°C 69% 1.0 mph NW1.6 kmh NW -- 30.41 in1029.8 mb 0.00 in0.0 mm 0.00 in0.0 mm 0.00 in0.0 mm
10:40 AM 79.3°F26.3°C 69.9°F21.1°C 73% 6.0 mph NW9.7 kmh NW -- 30.41 in1029.8 mb 0.00 in0.0 mm 0.00 in0.0 mm 0.00 in0.0 mm
10:45 AM 79.5°F26.4°C 70.1°F21.2°C 73% 3.0 mph W4.8 kmh W -- 30.41 in1029.8 mb 0.00 in0.0 mm 0.00 in0.0 mm 0.00 in0.0 mm
10:50 AM 81.5°F27.5°C 70.8°F21.6°C 70% 6.0 mph NW9.7 kmh NW -- 30.41 in1029.8 mb 0.00 in0.0 mm 0.00 in0.0 mm 0.00 in0.0 mm
10:55 AM 82.8°F28.2°C 71.1°F21.7°C 68% Calm Calm -- 30.41 in1029.8 mb 0.00 in0.0 mm 0.00 in0.0 mm 0.00 in0.0 mm
11:00 AM 82.8°F28.2°C 71.1°F21.7°C 68% 3.0 mph W4.8 kmh W -- 30.41 in1029.8 mb 0.00 in0.0 mm 0.00 in0.0 mm 0.00 in0.0 mm
11:05 AM 81.3°F27.4°C 70.6°F21.4°C 70% 4.0 mph SW6.4 kmh SW -- 30.40 in1029.5 mb 0.00 in0.0 mm 0.00 in0.0 mm 0.00 in0.0 mm
11:10 AM 81.1°F27.3°C 70.8°F21.6°C 71% 4.0 mph W6.4 kmh W -- 30.40 in1029.5 mb 0.00 in0.0 mm 0.00 in0.0 mm 0.00 in0.0 mm
11:15 AM 81.0°F27.2°C 70.7°F21.5°C 71% 3.0 mph W4.8 kmh W -- 30.40 in1029.5 mb 0.00 in0.0 mm 0.00 in0.0 mm 0.00 in0.0 mm
11:20 AM 76.6°F24.8°C 69.2°F20.7°C 78% 2.0 mph W3.2 kmh W -- 30.40 in1029.5 mb 0.00 in0.0 mm 0.00 in0.0 mm 0.00 in0.0 mm
11:25 AM 77.0°F25.0°C 69.6°F20.9°C 78% 2.0 mph NW3.2 kmh NW -- 30.40 in1029.5 mb 0.00 in0.0 mm 0.00 in0.0 mm 0.00 in0.0 mm
11:30 AM 77.0°F25.0°C 69.6°F20.9°C 78% 1.0 mph WNW1.6 kmh WNW -- 30.39 in1029.1 mb 0.00 in0.0 mm 0.00 in0.0 mm 0.00 in0.0 mm
11:35 AM 77.4°F25.2°C 69.6°F20.9°C 77% 2.0 mph WNW3.2 kmh WNW -- 30.39 in1029.1 mb 0.00 in0.0 mm 0.00 in0.0 mm 0.00 in0.0 mm
11:40 AM 77.9°F25.5°C 70.1°F21.2°C 77% 2.0 mph W3.2 kmh W -- 30.39 in1029.1 mb 0.00 in0.0 mm 0.00 in0.0 mm 0.00 in0.0 mm
11:45 AM 78.3°F25.7°C 70.1°F21.2°C 76% 3.0 mph WNW4.8 kmh WNW -- 30.39 in1029.1 mb 0.00 in0.0 mm 0.00 in0.0 mm 0.00 in0.0 mm
11:55 AM 78.4°F25.8°C 70.2°F21.2°C 76% 4.0 mph WNW6.4 kmh WNW -- 30.39 in1029.1 mb 0.00 in0.0 mm 0.00 in0.0 mm 0.00 in0.0 mm
12:00 PM 79.0°F26.1°C 70.4°F21.3°C 75% 4.0 mph WNW6.4 kmh WNW -- 30.39 in1029.1 mb 0.00 in0.0 mm 0.00 in0.0 mm 0.00 in0.0 mm
12:05 PM 79.0°F26.1°C 70.4°F21.3°C 75% 4.0 mph WNW6.4 kmh WNW -- 30.38 in1028.8 mb 0.00 in0.0 mm 0.00 in0.0 mm 0.00 in0.0 mm
12:10 PM 80.1°F26.7°C 71.0°F21.7°C 74% 3.0 mph WNW4.8 kmh WNW -- 30.38 in1028.8 mb 0.00 in0.0 mm 0.00 in0.0 mm 0.00 in0.0 mm
12:15 PM 78.8°F26.0°C 70.2°F21.2°C 75% 1.0 mph WSW1.6 kmh WSW -- 30.38 in1028.8 mb 0.00 in0.0 mm 0.00 in0.0 mm 0.00 in0.0 mm
12:20 PM 79.3°F26.3°C 70.7°F21.5°C 75% 4.0 mph WSW6.4 kmh WSW -- 30.37 in1028.4 mb 0.00 in0.0 mm 0.00 in0.0 mm 0.00 in0.0 mm
12:25 PM 80.2°F26.8°C 71.2°F21.8°C 74% 4.0 mph W6.4 kmh W -- 30.37 in1028.4 mb 0.00 in0.0 mm 0.00 in0.0 mm 0.00 in0.0 mm
12:30 PM 80.6°F27.0°C 71.1°F21.7°C 73% 4.0 mph SSW6.4 kmh SSW -- 30.37 in1028.4 mb 0.00 in0.0 mm 0.00 in0.0 mm 0.00 in0.0 mm
12:35 PM 80.6°F27.0°C 70.7°F21.5°C 72% 2.0 mph NW3.2 kmh NW -- 30.36 in1028.1 mb 0.00 in0.0 mm 0.00 in0.0 mm 0.00 in0.0 mm
12:40 PM 81.9°F27.7°C 71.5°F21.9°C 71% 3.0 mph WNW4.8 kmh WNW -- 30.36 in1028.1 mb 0.00 in0.0 mm 0.00 in0.0 mm 0.00 in0.0 mm
12:45 PM 82.2°F27.9°C 71.5°F21.9°C 70% 4.0 mph WNW6.4 kmh WNW -- 30.36 in1028.1 mb 0.00 in0.0 mm 0.00 in0.0 mm 0.00 in0.0 mm
12:55 PM 83.1°F28.4°C 71.5°F21.9°C 68% 4.0 mph WNW6.4 kmh WNW -- 30.35 in1027.8 mb 0.00 in0.0 mm 0.00 in0.0 mm 0.00 in0.0 mm
01:00 PM 83.3°F28.5°C 72.1°F22.3°C 69% 4.0 mph WNW6.4 kmh WNW -- 30.35 in1027.8 mb 0.00 in0.0 mm 0.00 in0.0 mm 0.00 in0.0 mm
01:05 PM 83.3°F28.5°C 71.6°F22.0°C 68% 6.0 mph WNW9.7 kmh WNW -- 30.35 in1027.8 mb 0.00 in0.0 mm 0.00 in0.0 mm 0.00 in0.0 mm
01:10 PM 82.0°F27.8°C 71.3°F21.8°C 70% 6.0 mph W9.7 kmh W -- 30.35 in1027.8 mb 0.00 in0.0 mm 0.00 in0.0 mm 0.00 in0.0 mm
01:15 PM 81.5°F27.5°C 71.2°F21.8°C 71% 2.0 mph W3.2 kmh W -- 30.34 in1027.4 mb 0.00 in0.0 mm 0.00 in0.0 mm 0.00 in0.0 mm
01:20 PM 82.6°F28.1°C 71.8°F22.1°C 70% 3.0 mph NW4.8 kmh NW -- 30.34 in1027.4 mb 0.00 in0.0 mm 0.00 in0.0 mm 0.00 in0.0 mm
01:25 PM 82.6°F28.1°C 71.4°F21.9°C 69% 2.0 mph W3.2 kmh W -- 30.34 in1027.4 mb 0.00 in0.0 mm 0.00 in0.0 mm 0.00 in0.0 mm
01:30 PM 83.7°F28.7°C 72.0°F22.2°C 68% 3.0 mph WSW4.8 kmh WSW -- 30.33 in1027.1 mb 0.00 in0.0 mm 0.00 in0.0 mm 0.00 in0.0 mm
01:35 PM 84.4°F29.1°C 71.8°F22.1°C 66% 4.0 mph NW6.4 kmh NW -- 30.33 in1027.1 mb 0.00 in0.0 mm 0.00 in0.0 mm 0.00 in0.0 mm
01:40 PM 84.0°F28.9°C 71.9°F22.2°C 67% 3.0 mph W4.8 kmh W -- 30.32 in1026.8 mb 0.00 in0.0 mm 0.00 in0.0 mm 0.00 in0.0 mm
01:45 PM 84.4°F29.1°C 71.8°F22.1°C 66% 3.0 mph W4.8 kmh W -- 30.32 in1026.8 mb 0.00 in0.0 mm 0.00 in0.0 mm 0.00 in0.0 mm
01:50 PM 84.9°F29.4°C 71.4°F21.9°C 64% 3.0 mph WNW4.8 kmh WNW -- 30.32 in1026.8 mb 0.00 in0.0 mm 0.00 in0.0 mm 0.00 in0.0 mm
01:55 PM 85.8°F29.9°C 71.8°F22.1°C 63% 4.0 mph WNW6.4 kmh WNW -- 30.32 in1026.8 mb 0.00 in0.0 mm 0.00 in0.0 mm 0.00 in0.0 mm
02:00 PM 85.5°F29.7°C 71.4°F21.9°C 63% 2.0 mph W3.2 kmh W -- 30.32 in1026.8 mb 0.00 in0.0 mm 0.00 in0.0 mm 0.00 in0.0 mm
02:05 PM 86.4°F30.2°C 71.8°F22.1°C 62% 2.0 mph W3.2 kmh W -- 30.32 in1026.8 mb 0.00 in0.0 mm 0.00 in0.0 mm 0.00 in0.0 mm
02:10 PM 86.0°F30.0°C 72.0°F22.2°C 63% 3.0 mph S4.8 kmh S -- 30.32 in1026.8 mb 0.00 in0.0 mm 0.00 in0.0 mm 0.00 in0.0 mm
02:15 PM 86.0°F30.0°C 72.0°F22.2°C 63% 3.0 mph W4.8 kmh W -- 30.32 in1026.8 mb 0.00 in0.0 mm 0.00 in0.0 mm 0.00 in0.0 mm
02:20 PM 86.4°F30.2°C 72.8°F22.7°C 64% 3.0 mph W4.8 kmh W -- 30.31 in1026.4 mb 0.00 in0.0 mm 0.00 in0.0 mm 0.00 in0.0 mm
02:25 PM 85.3°F29.6°C 72.2°F22.3°C 65% 5.0 mph W8.0 kmh W -- 30.31 in1026.4 mb 0.00 in0.0 mm 0.00 in0.0 mm 0.00 in0.0 mm
02:30 PM 84.7°F29.3°C 72.1°F22.3°C 66% 4.0 mph WSW6.4 kmh WSW -- 30.31 in1026.4 mb 0.00 in0.0 mm 0.00 in0.0 mm 0.00 in0.0 mm
02:35 PM 84.7°F29.3°C 72.1°F22.3°C 66% 2.0 mph W3.2 kmh W -- 30.31 in1026.4 mb 0.00 in0.0 mm 0.00 in0.0 mm 0.00 in0.0 mm
02:40 PM 85.8°F29.9°C 71.8°F22.1°C 63% 3.0 mph WNW4.8 kmh WNW -- 30.31 in1026.4 mb 0.00 in0.0 mm 0.00 in0.0 mm 0.00 in0.0 mm
02:45 PM 85.5°F29.7°C 71.9°F22.2°C 64% 3.0 mph W4.8 kmh W -- 30.31 in1026.4 mb 0.00 in0.0 mm 0.00 in0.0 mm 0.00 in0.0 mm
02:50 PM 82.9°F28.3°C 71.7°F22.1°C 69% 2.0 mph W3.2 kmh W -- 30.31 in1026.4 mb 0.00 in0.0 mm 0.00 in0.0 mm 0.00 in0.0 mm
02:55 PM 84.2°F29.0°C 72.1°F22.3°C 67% 2.0 mph WNW3.2 kmh WNW -- 30.31 in1026.4 mb 0.00 in0.0 mm 0.00 in0.0 mm 0.00 in0.0 mm
03:00 PM 84.4°F29.1°C 72.2°F22.3°C 67% 2.0 mph W3.2 kmh W -- 30.31 in1026.4 mb 0.00 in0.0 mm 0.00 in0.0 mm 0.00 in0.0 mm
03:05 PM 84.4°F29.1°C 71.8°F22.1°C 66% 4.0 mph WNW6.4 kmh WNW -- 30.31 in1026.4 mb 0.00 in0.0 mm 0.00 in0.0 mm 0.00 in0.0 mm
03:10 PM 83.7°F28.7°C 71.5°F21.9°C 67% 1.0 mph W1.6 kmh W -- 30.32 in1026.8 mb 0.00 in0.0 mm 0.00 in0.0 mm 0.00 in0.0 mm
03:15 PM 88.7°F31.5°C 73.6°F23.1°C 61% 2.0 mph WNW3.2 kmh WNW -- 30.31 in1026.4 mb 0.00 in0.0 mm 0.00 in0.0 mm 0.00 in0.0 mm
03:20 PM 88.7°F31.5°C 72.6°F22.6°C 59% 3.0 mph WNW4.8 kmh WNW -- 30.31 in1026.4 mb 0.00 in0.0 mm 0.00 in0.0 mm 0.00 in0.0 mm
03:25 PM 89.6°F32.0°C 73.4°F23.0°C 59% 2.0 mph W3.2 kmh W -- 30.31 in1026.4 mb 0.00 in0.0 mm 0.00 in0.0 mm 0.00 in0.0 mm
03:30 PM 89.4°F31.9°C 72.7°F22.6°C 58% 3.0 mph W4.8 kmh W -- 30.32 in1026.8 mb 0.00 in0.0 mm 0.00 in0.0 mm 0.00 in0.0 mm
03:35 PM 87.6°F30.9°C 72.5°F22.5°C 61% 1.0 mph W1.6 kmh W -- 30.31 in1026.4 mb 0.00 in0.0 mm 0.00 in0.0 mm 0.00 in0.0 mm
03:40 PM 88.0°F31.1°C 72.4°F22.4°C 60% 2.0 mph WSW3.2 kmh WSW -- 30.32 in1026.8 mb 0.00 in0.0 mm 0.00 in0.0 mm 0.00 in0.0 mm
03:45 PM 83.7°F28.7°C 71.1°F21.7°C 66% 2.0 mph WNW3.2 kmh WNW -- 30.31 in1026.4 mb 0.00 in0.0 mm 0.00 in0.0 mm 0.00 in0.0 mm
03:50 PM 83.8°F28.8°C 71.7°F22.1°C 67% 1.0 mph W1.6 kmh W -- 30.31 in1026.4 mb 0.00 in0.0 mm 0.00 in0.0 mm 0.00 in0.0 mm
03:55 PM 84.4°F29.1°C 71.8°F22.1°C 66% 1.0 mph W1.6 kmh W -- 30.32 in1026.8 mb 0.00 in0.0 mm 0.00 in0.0 mm 0.00 in0.0 mm
04:00 PM 84.7°F29.3°C 71.7°F22.1°C 65% 2.0 mph W3.2 kmh W -- 30.32 in1026.8 mb 0.00 in0.0 mm 0.00 in0.0 mm 0.00 in0.0 mm
04:05 PM 84.4°F29.1°C 71.8°F22.1°C 66% 3.0 mph WNW4.8 kmh WNW -- 30.32 in1026.8 mb 0.00 in0.0 mm 0.00 in0.0 mm 0.00 in0.0 mm
04:10 PM 84.6°F29.2°C 71.5°F21.9°C 65% 3.0 mph WNW4.8 kmh WNW -- 30.32 in1026.8 mb 0.00 in0.0 mm 0.00 in0.0 mm 0.00 in0.0 mm
04:15 PM 84.2°F29.0°C 71.6°F22.0°C 66% 2.0 mph W3.2 kmh W -- 30.32 in1026.8 mb 0.00 in0.0 mm 0.00 in0.0 mm 0.00 in0.0 mm
04:20 PM 83.8°F28.8°C 71.3°F21.8°C 66% 3.0 mph WNW4.8 kmh WNW -- 30.32 in1026.8 mb 0.00 in0.0 mm 0.00 in0.0 mm 0.00 in0.0 mm
04:25 PM 83.5°F28.6°C 71.4°F21.9°C 67% 3.0 mph WNW4.8 kmh WNW -- 30.32 in1026.8 mb 0.00 in0.0 mm 0.00 in0.0 mm 0.00 in0.0 mm
04:30 PM 83.5°F28.6°C 70.9°F21.6°C 66% 4.0 mph W6.4 kmh W -- 30.31 in1026.4 mb 0.00 in0.0 mm 0.00 in0.0 mm 0.00 in0.0 mm
04:35 PM 87.3°F30.7°C 72.2°F22.3°C 61% 2.0 mph W3.2 kmh W -- 30.32 in1026.8 mb 0.00 in0.0 mm 0.00 in0.0 mm 0.00 in0.0 mm
04:40 PM 89.1°F31.7°C 72.9°F22.7°C 59% 3.0 mph WNW4.8 kmh WNW -- 30.32 in1026.8 mb 0.00 in0.0 mm 0.00 in0.0 mm 0.00 in0.0 mm
04:45 PM 88.9°F31.6°C 72.2°F22.3°C 58% 1.0 mph W1.6 kmh W -- 30.32 in1026.8 mb 0.00 in0.0 mm 0.00 in0.0 mm 0.00 in0.0 mm
04:50 PM 89.1°F31.7°C 72.9°F22.7°C 59% 2.0 mph W3.2 kmh W -- 30.32 in1026.8 mb 0.00 in0.0 mm 0.00 in0.0 mm 0.00 in0.0 mm
04:55 PM 89.6°F32.0°C 72.9°F22.7°C 58% 2.0 mph WSW3.2 kmh WSW -- 30.32 in1026.8 mb 0.00 in0.0 mm 0.00 in0.0 mm 0.00 in0.0 mm
05:00 PM 87.6°F30.9°C 72.1°F22.3°C 60% 3.0 mph SW4.8 kmh SW -- 30.32 in1026.8 mb 0.00 in0.0 mm 0.00 in0.0 mm 0.00 in0.0 mm
05:05 PM 88.5°F31.4°C 72.4°F22.4°C 59% Calm Calm -- 30.32 in1026.8 mb 0.00 in0.0 mm 0.00 in0.0 mm 0.00 in0.0 mm
05:10 PM 89.1°F31.7°C 72.9°F22.7°C 59% Calm Calm -- 30.32 in1026.8 mb 0.00 in0.0 mm 0.00 in0.0 mm 0.00 in0.0 mm
05:15 PM 88.5°F31.4°C 72.4°F22.4°C 59% Calm Calm -- 30.33 in1027.1 mb 0.00 in0.0 mm 0.00 in0.0 mm 0.00 in0.0 mm
05:20 PM 89.1°F31.7°C 72.9°F22.7°C 59% 1.0 mph SW1.6 kmh SW -- 30.33 in1027.1 mb 0.00 in0.0 mm 0.00 in0.0 mm 0.00 in0.0 mm
05:25 PM 87.8°F31.0°C 72.2°F22.3°C 60% 1.0 mph WSW1.6 kmh WSW -- 30.33 in1027.1 mb 0.00 in0.0 mm 0.00 in0.0 mm 0.00 in0.0 mm
05:30 PM 87.1°F30.6°C 72.0°F22.2°C 61% Calm Calm -- 30.33 in1027.1 mb 0.00 in0.0 mm 0.00 in0.0 mm 0.00 in0.0 mm
05:35 PM 86.5°F30.3°C 72.0°F22.2°C 62% 1.0 mph SW1.6 kmh SW -- 30.33 in1027.1 mb 0.00 in0.0 mm 0.00 in0.0 mm 0.00 in0.0 mm
05:40 PM 86.4°F30.2°C 72.3°F22.4°C 63% Calm Calm -- 30.33 in1027.1 mb 0.00 in0.0 mm 0.00 in0.0 mm 0.00 in0.0 mm
05:45 PM 86.4°F30.2°C 71.8°F22.1°C 62% Calm Calm -- 30.34 in1027.4 mb 0.00 in0.0 mm 0.00 in0.0 mm 0.00 in0.0 mm
05:50 PM 86.5°F30.3°C 72.0°F22.2°C 62% Calm Calm -- 30.34 in1027.4 mb 0.00 in0.0 mm 0.00 in0.0 mm 0.00 in0.0 mm
05:55 PM 87.4°F30.8°C 72.4°F22.4°C 61% Calm Calm -- 30.33 in1027.1 mb 0.00 in0.0 mm 0.00 in0.0 mm 0.00 in0.0 mm
06:00 PM 86.4°F30.2°C 71.8°F22.1°C 62% Calm Calm -- 30.34 in1027.4 mb 0.00 in0.0 mm 0.00 in0.0 mm 0.00 in0.0 mm
06:05 PM 86.2°F30.1°C 72.1°F22.3°C 63% Calm Calm -- 30.34 in1027.4 mb 0.00 in0.0 mm 0.00 in0.0 mm 0.00 in0.0 mm
06:10 PM 85.6°F29.8°C 71.6°F22.0°C 63% Calm Calm -- 30.34 in1027.4 mb 0.00 in0.0 mm 0.00 in0.0 mm 0.00 in0.0 mm
06:15 PM 85.6°F29.8°C 72.1°F22.3°C 64% Calm Calm -- 30.34 in1027.4 mb 0.00 in0.0 mm 0.00 in0.0 mm 0.00 in0.0 mm
06:20 PM 86.2°F30.1°C 71.7°F22.1°C 62% Calm Calm -- 30.35 in1027.8 mb 0.00 in0.0 mm 0.00 in0.0 mm 0.00 in0.0 mm
06:25 PM 85.5°F29.7°C 71.4°F21.9°C 63% Calm Calm -- 30.35 in1027.8 mb 0.00 in0.0 mm 0.00 in0.0 mm 0.00 in0.0 mm
06:30 PM 86.0°F30.0°C 72.0°F22.2°C 63% Calm Calm -- 30.35 in1027.8 mb 0.00 in0.0 mm 0.00 in0.0 mm 0.00 in0.0 mm
06:35 PM 85.3°F29.6°C 71.3°F21.8°C 63% Calm Calm -- 30.35 in1027.8 mb 0.00 in0.0 mm 0.00 in0.0 mm 0.00 in0.0 mm
06:40 PM 85.3°F29.6°C 71.7°F22.1°C 64% Calm Calm -- 30.35 in1027.8 mb 0.00 in0.0 mm 0.00 in0.0 mm 0.00 in0.0 mm
06:45 PM 85.6°F29.8°C 71.6°F22.0°C 63% Calm Calm -- 30.35 in1027.8 mb 0.00 in0.0 mm 0.00 in0.0 mm 0.00 in0.0 mm
06:55 PM 77.2°F25.1°C 69.0°F20.6°C 76% Calm Calm -- 30.36 in1028.1 mb 0.00 in0.0 mm 0.00 in0.0 mm 0.00 in0.0 mm
07:00 PM 82.6°F28.1°C 70.9°F21.6°C 68% Calm Calm -- 30.35 in1027.8 mb 0.00 in0.0 mm 0.00 in0.0 mm 0.00 in0.0 mm
07:05 PM 84.2°F29.0°C 71.2°F21.8°C 65% Calm Calm -- 30.36 in1028.1 mb 0.00 in0.0 mm 0.00 in0.0 mm 0.00 in0.0 mm
07:10 PM 83.1°F28.4°C 71.0°F21.7°C 67% Calm Calm -- 30.36 in1028.1 mb 0.00 in0.0 mm 0.00 in0.0 mm 0.00 in0.0 mm
07:15 PM 84.0°F28.9°C 71.0°F21.7°C 65% Calm Calm -- 30.36 in1028.1 mb 0.00 in0.0 mm 0.00 in0.0 mm 0.00 in0.0 mm
07:20 PM 83.8°F28.8°C 70.8°F21.6°C 65% Calm Calm -- 30.36 in1028.1 mb 0.00 in0.0 mm 0.00 in0.0 mm 0.00 in0.0 mm
07:25 PM 82.6°F28.1°C 70.9°F21.6°C 68% Calm Calm -- 30.36 in1028.1 mb 0.00 in0.0 mm 0.00 in0.0 mm 0.00 in0.0 mm
07:30 PM 77.0°F25.0°C 69.2°F20.7°C 77% Calm Calm -- 30.36 in1028.1 mb 0.00 in0.0 mm 0.00 in0.0 mm 0.00 in0.0 mm
07:35 PM 73.2°F22.9°C 68.4°F20.2°C 85% Calm Calm -- 30.37 in1028.4 mb 0.00 in0.0 mm 0.00 in0.0 mm 0.00 in0.0 mm
07:40 PM 73.2°F22.9°C 68.1°F20.1°C 84% Calm Calm -- 30.37 in1028.4 mb 0.00 in0.0 mm 0.00 in0.0 mm 0.00 in0.0 mm
07:45 PM 78.8°F26.0°C 70.2°F21.2°C 75% Calm Calm -- 30.37 in1028.4 mb 0.00 in0.0 mm 0.00 in0.0 mm 0.00 in0.0 mm
07:50 PM 81.5°F27.5°C 70.8°F21.6°C 70% Calm Calm -- 30.37 in1028.4 mb 0.00 in0.0 mm 0.00 in0.0 mm 0.00 in0.0 mm
07:55 PM 82.0°F27.8°C 70.9°F21.6°C 69% Calm Calm -- 30.37 in1028.4 mb 0.00 in0.0 mm 0.00 in0.0 mm 0.00 in0.0 mm
08:00 PM 82.6°F28.1°C 70.9°F21.6°C 68% Calm Calm -- 30.38 in1028.8 mb 0.00 in0.0 mm 0.00 in0.0 mm 0.00 in0.0 mm
08:05 PM 82.9°F28.3°C 70.9°F21.6°C 67% Calm Calm -- 30.38 in1028.8 mb 0.00 in0.0 mm 0.00 in0.0 mm 0.00 in0.0 mm
08:10 PM 82.6°F28.1°C 70.9°F21.6°C 68% Calm Calm -- 30.38 in1028.8 mb 0.00 in0.0 mm 0.00 in0.0 mm 0.00 in0.0 mm
08:15 PM 83.1°F28.4°C 71.0°F21.7°C 67% Calm Calm -- 30.38 in1028.8 mb 0.00 in0.0 mm 0.00 in0.0 mm 0.00 in0.0 mm
08:20 PM 83.3°F28.5°C 71.2°F21.8°C 67% Calm Calm -- 30.38 in1028.8 mb 0.00 in0.0 mm 0.00 in0.0 mm 0.00 in0.0 mm
08:25 PM 82.2°F27.9°C 71.0°F21.7°C 69% 1.0 mph W1.6 kmh W -- 30.38 in1028.8 mb 0.00 in0.0 mm 0.00 in0.0 mm 0.00 in0.0 mm
08:30 PM 80.4°F26.9°C 71.0°F21.7°C 73% Calm Calm -- 30.39 in1029.1 mb 0.00 in0.0 mm 0.00 in0.0 mm 0.00 in0.0 mm
08:35 PM 82.6°F28.1°C 71.8°F22.1°C 70% Calm Calm -- 30.39 in1029.1 mb 0.00 in0.0 mm 0.00 in0.0 mm 0.00 in0.0 mm
08:40 PM 81.3°F27.4°C 71.0°F21.7°C 71% Calm Calm -- 30.39 in1029.1 mb 0.00 in0.0 mm 0.00 in0.0 mm 0.00 in0.0 mm
08:45 PM 82.4°F28.0°C 71.6°F22.0°C 70% Calm Calm -- 30.39 in1029.1 mb 0.00 in0.0 mm 0.00 in0.0 mm 0.00 in0.0 mm
08:50 PM 82.0°F27.8°C 71.3°F21.8°C 70% Calm Calm -- 30.39 in1029.1 mb 0.00 in0.0 mm 0.00 in0.0 mm 0.00 in0.0 mm
08:55 PM 83.8°F28.8°C 71.7°F22.1°C 67% Calm Calm -- 30.39 in1029.1 mb 0.00 in0.0 mm 0.00 in0.0 mm 0.00 in0.0 mm
09:00 PM 81.5°F27.5°C 70.8°F21.6°C 70% 1.0 mph NE1.6 kmh NE -- 30.39 in1029.1 mb 0.00 in0.0 mm 0.00 in0.0 mm 0.00 in0.0 mm
09:05 PM 81.7°F27.6°C 70.9°F21.6°C 70% Calm Calm -- 30.40 in1029.5 mb 0.00 in0.0 mm 0.00 in0.0 mm 0.00 in0.0 mm
09:10 PM 81.7°F27.6°C 70.9°F21.6°C 70% Calm Calm -- 30.40 in1029.5 mb 0.00 in0.0 mm 0.00 in0.0 mm 0.00 in0.0 mm
09:15 PM 82.9°F28.3°C 71.3°F21.8°C 68% Calm Calm -- 30.40 in1029.5 mb 0.00 in0.0 mm 0.00 in0.0 mm 0.00 in0.0 mm
09:20 PM 82.8°F28.2°C 71.1°F21.7°C 68% 1.0 mph ENE1.6 kmh ENE -- 30.41 in1029.8 mb 0.00 in0.0 mm 0.00 in0.0 mm 0.00 in0.0 mm
09:25 PM 83.3°F28.5°C 71.6°F22.0°C 68% Calm Calm -- 30.41 in1029.8 mb 0.00 in0.0 mm 0.00 in0.0 mm 0.00 in0.0 mm
09:30 PM 83.8°F28.8°C 71.7°F22.1°C 67% Calm Calm -- 30.40 in1029.5 mb 0.00 in0.0 mm 0.00 in0.0 mm 0.00 in0.0 mm
09:35 PM 84.4°F29.1°C 71.8°F22.1°C 66% Calm Calm -- 30.41 in1029.8 mb 0.00 in0.0 mm 0.00 in0.0 mm 0.00 in0.0 mm
09:40 PM 83.1°F28.4°C 71.0°F21.7°C 67% Calm Calm -- 30.41 in1029.8 mb 0.00 in0.0 mm 0.00 in0.0 mm 0.00 in0.0 mm
09:45 PM 82.4°F28.0°C 70.8°F21.6°C 68% Calm Calm -- 30.41 in1029.8 mb 0.00 in0.0 mm 0.00 in0.0 mm 0.00 in0.0 mm
09:50 PM 80.4°F26.9°C 69.7°F20.9°C 70% 3.0 mph ENE4.8 kmh ENE -- 30.41 in1029.8 mb 0.00 in0.0 mm 0.00 in0.0 mm 0.00 in0.0 mm
09:55 PM 81.5°F27.5°C 70.3°F21.3°C 69% Calm Calm -- 30.41 in1029.8 mb 0.00 in0.0 mm 0.00 in0.0 mm 0.00 in0.0 mm
10:00 PM 81.7°F27.6°C 70.1°F21.2°C 68% 4.0 mph NE6.4 kmh NE -- 30.41 in1029.8 mb 0.00 in0.0 mm 0.00 in0.0 mm 0.00 in0.0 mm
10:05 PM 81.0°F27.2°C 69.4°F20.8°C 68% 4.0 mph NE6.4 kmh NE -- 30.41 in1029.8 mb 0.00 in0.0 mm 0.00 in0.0 mm 0.00 in0.0 mm
10:10 PM 78.6°F25.9°C 68.4°F20.2°C 71% Calm Calm -- 30.42 in1030.1 mb 0.00 in0.0 mm 0.00 in0.0 mm 0.00 in0.0 mm
10:15 PM 81.3°F27.4°C 69.3°F20.7°C 67% 3.0 mph E4.8 kmh E -- 30.41 in1029.8 mb 0.00 in0.0 mm 0.00 in0.0 mm 0.00 in0.0 mm
10:20 PM 81.5°F27.5°C 68.6°F20.3°C 65% 4.0 mph ENE6.4 kmh ENE -- 30.42 in1030.1 mb 0.00 in0.0 mm 0.00 in0.0 mm 0.00 in0.0 mm
10:25 PM 81.7°F27.6°C 68.8°F20.4°C 65% 1.0 mph NNE1.6 kmh NNE -- 30.42 in1030.1 mb 0.00 in0.0 mm 0.00 in0.0 mm 0.00 in0.0 mm
10:30 PM 81.0°F27.2°C 68.5°F20.3°C 66% 3.0 mph NE4.8 kmh NE -- 30.42 in1030.1 mb 0.00 in0.0 mm 0.00 in0.0 mm 0.00 in0.0 mm
10:35 PM 80.8°F27.1°C 68.4°F20.2°C 66% 2.0 mph NE3.2 kmh NE -- 30.42 in1030.1 mb 0.00 in0.0 mm 0.00 in0.0 mm 0.00 in0.0 mm
10:40 PM 80.8°F27.1°C 68.4°F20.2°C 66% 3.0 mph ENE4.8 kmh ENE -- 30.42 in1030.1 mb 0.00 in0.0 mm 0.00 in0.0 mm 0.00 in0.0 mm
10:45 PM 80.2°F26.8°C 68.3°F20.2°C 67% 1.0 mph NNE1.6 kmh NNE -- 30.42 in1030.1 mb 0.00 in0.0 mm 0.00 in0.0 mm 0.00 in0.0 mm
10:50 PM 79.5°F26.4°C 67.2°F19.6°C 66% 1.0 mph NE1.6 kmh NE -- 30.42 in1030.1 mb 0.00 in0.0 mm 0.00 in0.0 mm 0.00 in0.0 mm
10:55 PM 79.3°F26.3°C 67.4°F19.7°C 67% 1.0 mph NE1.6 kmh NE -- 30.42 in1030.1 mb 0.00 in0.0 mm 0.00 in0.0 mm 0.00 in0.0 mm
11:00 PM 80.2°F26.8°C 67.4°F19.7°C 65% 3.0 mph NE4.8 kmh NE -- 30.42 in1030.1 mb 0.00 in0.0 mm 0.00 in0.0 mm 0.00 in0.0 mm
11:05 PM 81.1°F27.3°C 68.3°F20.2°C 65% Calm Calm -- 30.42 in1030.1 mb 0.00 in0.0 mm 0.00 in0.0 mm 0.00 in0.0 mm
11:10 PM 80.6°F27.0°C 67.7°F19.8°C 65% 1.0 mph NE1.6 kmh NE -- 30.42 in1030.1 mb 0.00 in0.0 mm 0.00 in0.0 mm 0.00 in0.0 mm
11:15 PM 81.0°F27.2°C 68.1°F20.1°C 65% Calm Calm -- 30.42 in1030.1 mb 0.00 in0.0 mm 0.00 in0.0 mm 0.00 in0.0 mm
11:20 PM 78.6°F25.9°C 67.2°F19.6°C 68% 1.0 mph ENE1.6 kmh ENE -- 30.42 in1030.1 mb 0.00 in0.0 mm 0.00 in0.0 mm 0.00 in0.0 mm
11:25 PM 79.0°F26.1°C 67.1°F19.5°C 67% 2.0 mph NNE3.2 kmh NNE -- 30.42 in1030.1 mb 0.00 in0.0 mm 0.00 in0.0 mm 0.00 in0.0 mm
11:30 PM 78.8°F26.0°C 66.9°F19.4°C 67% 2.0 mph NNE3.2 kmh NNE -- 30.42 in1030.1 mb 0.00 in0.0 mm 0.00 in0.0 mm 0.00 in0.0 mm
11:35 PM 77.2°F25.1°C 66.2°F19.0°C 69% 3.0 mph NE4.8 kmh NE -- 30.43 in1030.5 mb 0.00 in0.0 mm 0.00 in0.0 mm 0.00 in0.0 mm
11:40 PM 77.2°F25.1°C 66.2°F19.0°C 69% 2.0 mph NNE3.2 kmh NNE -- 30.43 in1030.5 mb 0.00 in0.0 mm 0.00 in0.0 mm 0.00 in0.0 mm
11:45 PM 76.6°F24.8°C 65.7°F18.7°C 69% 3.0 mph NNE4.8 kmh NNE -- 30.42 in1030.1 mb 0.00 in0.0 mm 0.00 in0.0 mm 0.00 in0.0 mm
11:50 PM 76.6°F24.8°C 65.3°F18.5°C 68% 6.0 mph 9.7 kmh -- 30.42 in1030.1 mb 0.00 in0.0 mm 0.00 in0.0 mm 0.00 in0.0 mm
11:55 PM 76.6°F24.8°C 64.4°F18.0°C 66% 6.0 mph E9.7 kmh E -- 30.42 in1030.1 mb 0.00 in0.0 mm 0.00 in0.0 mm 0.00 in0.0 mm